Time;durP1;ratioP1;P1;durP2;ratioP2;P2;SDS_P1;SDS_P2;PMS_P1;PMS_P2;Temp;Humidity;BMP_temperature;BMP_pressure;BME280_temperature;BME280_humidity;BME280_pressure;Samples;Min_cycle;Max_cycle;Signal;HPM_P1;HPM_P2
2023/06/25 00:02:13;;;;;;;7.50;5.20;;;;;;;;;;5102969;28;20034;-82
2023/06/25 00:04:39;;;;;;;7.55;5.82;;;;;;;;;;5080862;28;20024;-85
2023/06/25 00:07:05;;;;;;;7.25;5.57;;;;;;;;;;5099610;28;20032;-83
2023/06/25 00:09:32;;;;;;;7.22;5.32;;;;;;;;;;5084957;28;20032;-84
2023/06/25 00:11:58;;;;;;;7.05;5.30;;;;;;;;;;5097496;28;20020;-83
2023/06/25 00:14:23;;;;;;;7.00;5.20;;;20.70;96.40;;;;;;5082627;28;20058;-81
2023/06/25 00:16:57;;;;;;;6.88;5.32;;;;;;;;;;5079873;28;20073;-84
2023/06/25 00:19:24;;;;;;;8.18;5.50;;;;;;;;;;5093757;28;20029;-85
2023/06/25 00:21:50;;;;;;;8.45;5.45;;;;;;;;;;5079562;28;20115;-82
2023/06/25 00:24:18;;;;;;;7.97;5.68;;;;;;;;;;5093286;28;20070;-82
2023/06/25 00:26:45;;;;;;;7.95;5.60;;;;;;;;;;5078897;28;20028;-82
2023/06/25 00:29:13;;;;;;;7.22;5.40;;;;;;;;;;5097531;28;20024;-83
2023/06/25 00:31:39;;;;;;;6.55;5.10;;;;;;;;;;5074964;28;20031;-85
2023/06/25 00:34:05;;;;;;;12.73;5.38;;;;;;;;;;5091944;28;20040;-82
2023/06/25 00:36:36;;;;;;;8.80;5.35;;;;;;;;;;5086142;28;20027;-81
2023/06/25 00:39:03;;;;;;;7.57;5.35;;;20.40;97.70;;;;;;5081756;28;20081;-83
2023/06/25 00:41:29;;;;;;;6.30;5.25;;;;;;;;;;5094052;28;20016;-82
2023/06/25 00:43:58;;;;;;;7.90;5.50;;;;;;;;;;5099842;28;20499;-81
2023/06/25 00:46:25;;;;;;;7.13;5.10;;;;;;;;;;5091395;28;20051;-81
2023/06/25 00:48:51;;;;;;;10.07;4.95;;;;;;;;;;5097450;28;20067;-82
2023/06/25 00:51:27;;;;;;;10.50;5.07;;;20.30;97.30;;;;;;5092981;28;20063;-83
2023/06/25 00:53:53;;;;;;;7.53;5.05;;;;;;;;;;5093368;28;20028;-83
2023/06/25 00:56:27;;;;;;;6.38;4.93;;;;;;;;;;5078236;28;20032;-82
2023/06/25 00:58:54;;;;;;;6.65;4.72;;;;;;;;;;5080249;28;20409;-84
2023/06/25 01:01:26;;;;;;;6.22;4.95;;;17.60;96.80;;;;;;5077887;28;20024;-81
2023/06/25 01:03:56;;;;;;;7.60;4.90;;;20.00;97.50;;;;;;5081502;28;20028;-84
2023/06/25 01:06:23;;;;;;;11.07;6.30;;;;;;;;;;5078875;28;20059;-84
2023/06/25 01:08:50;;;;;;;7.70;5.80;;;;;;;;;;5079240;28;20477;-84
2023/06/25 01:11:17;;;;;;;7.95;6.10;;;20.10;98.10;;;;;;5075312;28;20469;-83
2023/06/25 01:13:43;;;;;;;8.18;6.07;;;;;;;;;;5079841;28;20111;-82
2023/06/25 01:16:09;;;;;;;9.35;5.80;;;;;;;;;;5097035;28;20016;-83
2023/06/25 01:18:39;;;;;;;6.68;5.25;;;;;;;;;;5079687;28;20027;-81
2023/06/25 01:21:05;;;;;;;7.60;5.68;;;18.30;98.40;;;;;;5097026;28;20024;-84
2023/06/25 01:23:32;;;;;;;9.95;5.88;;;;;;;;;;5098984;28;20040;-82
2023/06/25 01:25:58;;;;;;;6.43;5.32;;;;;;;;;;5097503;28;20027;-84
2023/06/25 01:28:24;;;;;;;9.02;5.70;;;;;;;;;;5078257;28;20020;-83
2023/06/25 01:30:51;;;;;;;7.85;5.68;;;;;;;;;;5080339;28;20024;-83
2023/06/25 01:33:18;;;;;;;6.32;4.82;;;;;;;;;;5091738;28;20036;-84
2023/06/25 01:35:44;;;;;;;8.57;6.05;;;;;;;;;;5084812;28;20021;-81
2023/06/25 01:38:10;;;;;;;7.07;5.15;;;;;;;;;;5099393;27;20032;-84
2023/06/25 01:40:36;;;;;;;7.30;5.82;;;;;;;;;;5121568;27;20035;-83
2023/06/25 01:43:02;;;;;;;8.25;5.43;;;;;;;;;;5115526;27;20035;-82
2023/06/25 01:45:28;;;;;;;6.78;5.50;;;;;;;;;;5095921;28;20114;-84
2023/06/25 01:47:54;;;;;;;6.78;5.78;;;;;;;;;;5097137;28;20034;-82
2023/06/25 01:50:20;;;;;;;7.50;5.55;;;19.60;99.80;;;;;;5081802;28;20024;-80
2023/06/25 01:52:46;;;;;;;7.30;5.45;;;;;;;;;;5093378;28;20020;-80
2023/06/25 01:55:12;;;;;;;6.35;4.93;;;;;;;;;;5097267;28;20032;-81
2023/06/25 01:57:38;;;;;;;8.40;5.88;;;;;;;;;;5075290;28;20448;-80
2023/06/25 02:00:07;;;;;;;7.18;6.18;;;19.70;99.90;;;;;;5089991;28;20043;-83
2023/06/25 02:02:32;;;;;;;7.30;5.65;;;;;;;;;;5092074;28;20107;-79
2023/06/25 02:04:58;;;;;;;8.50;5.93;;;19.70;99.90;;;;;;5096500;28;20558;-81
2023/06/25 02:07:24;;;;;;;7.90;5.68;;;;;;;;;;5087523;28;20051;-82
2023/06/25 02:09:50;;;;;;;7.90;6.18;;;;;;;;;;5095711;28;20085;-84
2023/06/25 02:12:16;;;;;;;7.43;5.72;;;;;;;;;;5074508;28;20054;-82
2023/06/25 02:14:42;;;;;;;12.27;5.95;;;;;;;;;;5075334;28;20902;-80
2023/06/25 02:17:08;;;;;;;8.32;5.72;;;;;;;;;;5086015;28;20119;-81
2023/06/25 02:19:34;;;;;;;8.40;5.68;;;;;;;;;;5092357;28;20020;-81
2023/06/25 02:22:00;;;;;;;8.45;6.38;;;;;;;;;;5092585;28;20028;-81
2023/06/25 02:24:26;;;;;;;7.97;5.35;;;;;;;;;;5093411;28;20093;-79
2023/06/25 02:26:52;;;;;;;6.85;5.25;;;;;;;;;;5076557;28;20036;-82
2023/06/25 02:29:18;;;;;;;8.15;5.95;;;;;;;;;;5078040;28;20034;-80
2023/06/25 02:31:44;;;;;;;8.25;5.32;;;;;;;;;;5074114;28;20597;-81
2023/06/25 02:34:10;;;;;;;9.00;5.60;;;;;;;;;;5062122;28;20032;-81
2023/06/25 02:36:36;;;;;;;9.07;5.70;;;;;;;;;;5096918;28;20054;-82
2023/06/25 02:39:02;;;;;;;6.60;5.13;;;;;;;;;;5091860;28;20032;-79
2023/06/25 02:41:28;;;;;;;8.07;5.82;;;;;;;;;;5071823;28;20084;-81
2023/06/25 02:43:54;;;;;;;7.20;5.65;;;;;;;;;;5094778;28;20043;-82
2023/06/25 02:46:20;;;;;;;7.90;5.95;;;;;;;;;;5081715;28;20028;-82
2023/06/25 02:48:46;;;;;;;9.18;6.75;;;;;;;;;;5079793;28;20028;-82
2023/06/25 02:51:12;;;;;;;11.07;6.75;;;;;;;;;;5096354;28;20043;-81
2023/06/25 02:53:38;;;;;;;15.05;7.50;;;;;;;;;;5081827;28;20036;-83
2023/06/25 02:56:04;;;;;;;9.20;6.88;;;;;;;;;;5084473;28;20020;-83
2023/06/25 02:58:30;;;;;;;10.82;6.82;;;;;;;;;;5077022;28;20028;-82
2023/06/25 03:00:56;;;;;;;8.95;6.97;;;;;;;;;;5102357;28;20039;-81
2023/06/25 03:03:22;;;;;;;11.50;8.27;;;;;;;;;;5103865;28;20570;-81
2023/06/25 03:05:48;;;;;;;9.88;7.68;;;;;;;;;;5099071;28;20024;-81
2023/06/25 03:08:14;;;;;;;10.02;7.72;;;;;;;;;;5099537;28;20028;-82
2023/06/25 03:10:40;;;;;;;12.45;7.63;;;;;;;;;;5097000;28;20401;-80
2023/06/25 03:13:07;;;;;;;9.18;6.63;;;;;;;;;;5099424;28;20091;-81
2023/06/25 03:15:33;;;;;;;8.75;6.65;;;;;;;;;;5099071;28;20020;-80
2023/06/25 03:17:59;;;;;;;9.80;6.78;;;;;;;;;;5098538;28;20020;-81
2023/06/25 03:20:25;;;;;;;8.88;6.20;;;;;;;;;;5069533;28;20035;-82
2023/06/25 03:22:51;;;;;;;10.75;6.00;;;;;;;;;;5104319;28;20027;-82
2023/06/25 03:25:17;;;;;;;8.35;6.03;;;;;;;;;;5083635;28;20036;-81
2023/06/25 03:27:43;;;;;;;9.32;5.78;;;;;;;;;;5082707;28;20138;-82
2023/06/25 03:30:09;;;;;;;8.25;5.90;;;;;;;;;;5100491;28;20077;-81
2023/06/25 03:32:36;;;;;;;8.63;6.20;;;;;;;;;;5073889;28;20019;-81
2023/06/25 03:35:02;;;;;;;9.07;6.47;;;;;;;;;;5100015;28;20635;-82
2023/06/25 03:37:28;;;;;;;7.20;5.80;;;;;;;;;;5100270;28;20032;-81
2023/06/25 03:39:54;;;;;;;10.43;5.85;;;;;;;;;;5100489;28;20024;-84
2023/06/25 03:42:20;;;;;;;8.00;5.95;;;;;;;;;;5079760;28;20034;-83
2023/06/25 03:44:47;;;;;;;6.47;5.30;;;;;;;;;;5096070;28;20039;-83
2023/06/25 03:47:13;;;;;;;8.18;5.95;;;;;;;;;;5102755;28;20080;-83
2023/06/25 03:49:39;;;;;;;8.25;5.88;;;;;;;;;;5099594;28;20039;-81
2023/06/25 03:52:06;;;;;;;6.78;5.70;;;;;;;;;;5078576;28;20029;-82
2023/06/25 03:54:31;;;;;;;7.75;6.22;;;;;;;;;;5082255;28;20035;-79
2023/06/25 03:56:57;;;;;;;10.18;6.60;;;;;;;;;;5078046;28;20024;-83
2023/06/25 03:59:23;;;;;;;8.27;6.25;;;;;;;;;;5101597;22;20135;-82
2023/06/25 04:01:49;;;;;;;7.40;5.75;;;;;;;;;;5074502;28;20058;-85
2023/06/25 04:04:15;;;;;;;9.07;5.93;;;;;;;;;;5094860;28;20100;-82
2023/06/25 04:06:41;;;;;;;7.50;6.20;;;;;;;;;;5088665;28;20048;-82
2023/06/25 04:09:07;;;;;;;6.93;5.82;;;;;;;;;;5074656;28;20045;-84
2023/06/25 04:11:33;;;;;;;7.55;5.85;;;;;;;;;;5080260;28;20024;-85
2023/06/25 04:13:59;;;;;;;7.82;6.28;;;;;;;;;;5082499;28;20076;-83
2023/06/25 04:16:25;;;;;;;7.95;5.88;;;;;;;;;;5076551;28;20037;-82
2023/06/25 04:18:51;;;;;;;7.68;6.13;;;;;;;;;;5097831;28;20020;-82
2023/06/25 04:21:17;;;;;;;7.82;5.82;;;;;;;;;;5083314;28;20578;-81
2023/06/25 04:23:43;;;;;;;8.25;5.47;;;;;;;;;;5094674;28;20102;-82
2023/06/25 04:26:09;;;;;;;7.38;5.88;;;;;;;;;;5075921;28;20036;-82
2023/06/25 04:28:35;;;;;;;7.78;5.82;;;;;;;;;;5075808;28;20378;-83
2023/06/25 04:31:01;;;;;;;8.10;5.80;;;;;;;;;;5090192;28;20099;-84
2023/06/25 04:33:27;;;;;;;9.70;5.85;;;;;;;;;;5091506;28;20029;-80
2023/06/25 04:35:53;;;;;;;6.97;5.43;;;;;;;;;;5093396;28;20043;-83
2023/06/25 04:38:19;;;;;;;9.23;5.90;;;;;;;;;;5093642;28;20043;-83
2023/06/25 04:40:45;;;;;;;7.10;5.35;;;;;;;;;;5069143;28;20020;-84
2023/06/25 04:43:11;;;;;;;8.13;5.30;;;;;;;;;;5093683;28;20031;-81
2023/06/25 04:45:37;;;;;;;8.25;5.80;;;;;;;;;;5078487;28;20028;-83
2023/06/25 04:48:03;;;;;;;7.95;5.70;;;;;;;;;;5087411;28;20128;-82
2023/06/25 04:50:29;;;;;;;6.38;5.22;;;;;;;;;;5088077;28;20024;-84
2023/06/25 04:52:55;;;;;;;7.00;5.07;;;;;;;;;;5077591;28;20024;-84
2023/06/25 04:55:21;;;;;;;9.02;5.53;;;;;;;;;;5076425;28;20826;-84
2023/06/25 04:57:47;;;;;;;9.45;6.03;;;;;;;;;;5076886;28;20040;-82
2023/06/25 05:00:13;;;;;;;6.97;5.45;;;;;;;;;;5078967;28;20028;-81
2023/06/25 05:02:39;;;;;;;8.88;5.80;;;;;;;;;;5084233;28;20028;-83
2023/06/25 05:05:05;;;;;;;6.55;4.97;;;;;;;;;;5076155;28;20082;-81
2023/06/25 05:07:31;;;;;;;8.02;5.00;;;;;;;;;;5090143;28;20053;-82
2023/06/25 05:09:57;;;;;;;7.93;5.80;;;;;;;;;;5093862;28;20122;-81
2023/06/25 05:12:23;;;;;;;9.98;6.00;;;;;;;;;;5077267;28;20063;-79
2023/06/25 05:14:49;;;;;;;8.10;5.20;;;;;;;;;;5088672;28;20100;-81
2023/06/25 05:17:15;;;;;;;6.35;5.40;;;;;;;;;;5088761;28;20070;-82
2023/06/25 05:19:41;;;;;;;7.80;5.25;;;;;;;;;;5083742;28;20028;-79
2023/06/25 05:22:07;;;;;;;6.70;5.07;;;;;;;;;;5105064;28;20035;-83
2023/06/25 05:24:33;;;;;;;6.93;5.38;;;;;;;;;;5099888;27;20042;-83
2023/06/25 05:26:59;;;;;;;6.90;5.28;;;;;;;;;;5105671;28;20016;-84
2023/06/25 05:29:25;;;;;;;7.95;5.03;;;;;;;;;;5107631;28;20107;-82
2023/06/25 05:31:53;;;;;;;6.43;4.47;;;;;;;;;;5111474;27;20032;-85
2023/06/25 05:34:19;;;;;;;8.75;4.68;;;;;;;;;;5106704;27;20041;-81
2023/06/25 05:36:45;;;;;;;6.30;4.68;;;;;;;;;;5109298;28;20039;-82
2023/06/25 05:39:11;;;;;;;7.70;4.90;;;;;;;;;;5090410;28;20039;-83
2023/06/25 05:41:38;;;;;;;7.07;4.50;;;;;;;;;;5098212;28;20049;-81
2023/06/25 05:44:05;;;;;;;6.85;4.65;;;;;;;;;;5097621;28;20123;-80
2023/06/25 05:46:30;;;;;;;5.88;4.68;;;;;;;;;;5086952;28;20037;-84
2023/06/25 05:48:56;;;;;;;5.85;4.50;;;;;;;;;;5100849;28;20043;-84
2023/06/25 05:51:22;;;;;;;5.57;4.30;;;;;;;;;;5102349;28;20028;-82
2023/06/25 05:53:50;;;;;;;5.13;3.97;;;;;;;;;;5095021;28;20039;-80
2023/06/25 05:56:16;;;;;;;6.43;4.43;;;25.10;91.80;;;;;;5094429;28;20240;-82
2023/06/25 05:58:43;;;;;;;7.03;4.65;;;;;;;;;;5080939;28;20055;-81
2023/06/25 06:01:09;;;;;;;6.32;4.30;;;;;;;;;;5098862;28;20032;-81
2023/06/25 06:03:35;;;;;;;7.00;4.72;;;;;;;;;;5083717;28;20035;-83
2023/06/25 06:06:01;;;;;;;6.43;3.88;;;;;;;;;;5094602;28;20024;-81
2023/06/25 06:08:27;;;;;;;4.68;3.97;;;;;;;;;;5071337;28;20116;-81
2023/06/25 06:10:54;;;;;;;6.70;4.47;;;;;;;;;;5078058;28;20034;-81
2023/06/25 06:13:20;;;;;;;6.00;4.40;;;;;;;;;;5090998;28;20484;-84
2023/06/25 06:15:46;;;;;;;7.28;4.25;;;;;;;;;;5091515;28;20028;-84
2023/06/25 06:18:12;;;;;;;6.68;4.28;;;;;;;;;;5093766;28;20074;-86
2023/06/25 06:20:38;;;;;;;5.05;4.05;;;;;;;;;;5095175;28;20020;-86
2023/06/25 06:23:04;;;;;;;6.22;4.32;;;;;;;;;;5094497;28;20030;-84
2023/06/25 06:25:30;;;;;;;4.93;4.07;;;;;;;;;;5092577;28;20096;-84
2023/06/25 06:27:56;;;;;;;6.28;4.60;;;;;;;;;;5092846;28;20029;-87
2023/06/25 06:30:22;;;;;;;8.07;4.50;;;;;;;;;;5076146;28;20038;-85
2023/06/25 06:32:48;;;;;;;6.65;3.97;;;;;;;;;;5083979;28;20028;-82
2023/06/25 06:35:14;;;;;;;6.70;4.25;;;;;;;;;;5092059;28;20523;-82
2023/06/25 06:37:40;;;;;;;7.20;4.03;;;;;;;;;;5073669;28;20132;-83
2023/06/25 06:40:07;;;;;;;7.32;4.35;;;;;;;;;;5093102;28;20062;-85
2023/06/25 06:42:35;;;;;;;6.20;4.32;;;;;;;;;;5083939;28;20049;-87
2023/06/25 06:45:02;;;;;;;5.78;4.32;;;;;;;;;;5094223;28;20028;-83
2023/06/25 06:47:28;;;;;;;6.05;4.00;;;;;;;;;;5100159;28;20077;-84
2023/06/25 06:49:54;;;;;;;5.47;4.15;;;;;;;;;;5109560;28;20040;-83
2023/06/25 06:52:24;;;;;;;6.03;4.30;;;;;;;;;;5101230;28;20052;-84
2023/06/25 06:54:50;;;;;;;6.47;4.40;;;;;;;;;;5101449;28;20055;-84
2023/06/25 06:57:17;;;;;;;5.43;4.03;;;;;;;;;;5100055;28;20028;-84
2023/06/25 06:59:44;;;;;;;8.23;3.95;;;;;;;;;;5103620;28;20204;-83
2023/06/25 07:02:11;;;;;;;5.82;4.05;;;;;;;;;;5112594;27;20051;-82
2023/06/25 07:04:37;;;;;;;6.18;4.03;;;;;;;;;;5094415;28;20130;-85
2023/06/25 07:07:03;;;;;;;4.75;3.88;;;;;;;;;;5117724;28;20020;-84
2023/06/25 07:09:29;;;;;;;5.65;3.97;;;;;;;;;;5097160;28;20020;-83
2023/06/25 07:11:55;;;;;;;6.60;4.15;;;;;;;;;;5113671;28;20024;-85
2023/06/25 07:14:21;;;;;;;5.22;3.80;;;;;;;;;;5097423;28;20047;-85
2023/06/25 07:16:47;;;;;;;4.70;3.58;;;;;;;;;;5109331;28;20016;-83
2023/06/25 07:19:13;;;;;;;5.82;4.03;;;;;;;;;;5107373;28;20050;-84
2023/06/25 07:21:39;;;;;;;4.75;4.22;;;25.20;91.20;;;;;;5092182;28;20012;-85
2023/06/25 07:24:05;;;;;;;5.10;3.80;;;;;;;;;;5107715;28;20036;-83
2023/06/25 07:26:32;;;;;;;6.78;4.43;;;;;;;;;;5094119;28;20085;-85
2023/06/25 07:28:58;;;;;;;5.47;3.80;;;;;;;;;;5091059;28;20105;-85
2023/06/25 07:31:24;;;;;;;5.38;3.90;;;;;;;;;;5104103;28;20088;-84
2023/06/25 07:33:50;;;;;;;5.45;3.85;;;;;;;;;;5104115;28;20028;-85
2023/06/25 07:36:17;;;;;;;5.00;4.03;;;;;;;;;;5105614;28;20046;-86
2023/06/25 07:38:43;;;;;;;5.43;3.85;;;;;;;;;;5092870;28;20040;-87
2023/06/25 07:41:09;;;;;;;5.75;3.95;;;;;;;;;;5106908;28;20045;-85
2023/06/25 07:43:37;;;;;;;6.28;3.92;;;;;;;;;;5088307;28;20466;-85
2023/06/25 07:46:03;;;;;;;4.35;3.53;;;;;;;;;;5105129;28;20040;-84
2023/06/25 07:48:29;;;;;;;4.35;3.47;;;;;;;;;;5104759;28;20080;-84
2023/06/25 07:50:56;;;;;;;5.28;3.60;;;;;;;;;;5066393;28;20067;-85
2023/06/25 07:53:22;;;;;;;5.82;4.00;;;;;;;;;;5093638;28;20080;-84
2023/06/25 07:55:49;;;;;;;5.72;3.88;;;;;;;;;;5100093;28;20031;-84
2023/06/25 07:58:15;;;;;;;4.75;3.85;;;;;;;;;;5104126;28;20081;-83
2023/06/25 08:00:41;;;;;;;5.45;3.88;;;;;;;;;;5093427;28;20080;-85
2023/06/25 08:03:07;;;;;;;4.93;3.60;;;;;;;;;;5108871;28;20069;-85
2023/06/25 08:05:33;;;;;;;4.78;3.60;;;;;;;;;;5088940;28;20069;-83
2023/06/25 08:07:59;;;;;;;6.75;3.47;;;;;;;;;;5086771;28;20023;-83
2023/06/25 08:10:25;;;;;;;4.90;4.07;;;;;;;;;;5091177;28;20489;-83
2023/06/25 08:12:52;;;;;;;5.10;3.65;;;;;;;;;;5087949;28;20027;-83
2023/06/25 08:15:18;;;;;;;5.35;3.33;;;;;;;;;;5080405;28;20020;-85
2023/06/25 08:17:44;;;;;;;4.57;3.42;;;;;;;;;;5076647;28;20047;-83
2023/06/25 08:20:10;;;;;;;4.22;3.38;;;;;;;;;;5089311;28;20554;-82
2023/06/25 08:22:36;;;;;;;5.47;3.60;;;;;;;;;;5094143;28;20049;-85
2023/06/25 08:25:07;;;;;;;4.40;3.17;;;26.90;80.40;;;;;;5092899;28;20115;-82
2023/06/25 08:27:33;;;;;;;4.90;3.60;;;;;;;;;;5093531;28;20496;-82
2023/06/25 08:29:59;;;;;;;5.40;3.08;;;;;;;;;;5093933;28;20023;-85
2023/06/25 08:32:25;;;;;;;4.70;3.28;;;;;;;;;;5089402;28;20036;-83
2023/06/25 08:34:51;;;;;;;4.68;3.45;;;;;;;;;;5087153;28;20028;-84
2023/06/25 08:37:17;;;;;;;5.03;3.40;;;;;;;;;;5091887;28;20035;-85
2023/06/25 08:39:43;;;;;;;4.55;3.28;;;;;;;;;;5091740;28;20474;-86
2023/06/25 08:42:09;;;;;;;4.85;3.22;;;;;;;;;;5068919;28;20059;-82
2023/06/25 08:44:36;;;;;;;4.45;3.17;;;;;;;;;;5068776;28;20074;-82
2023/06/25 08:47:04;;;;;;;3.80;3.13;;;;;;;;;;5075952;28;20024;-84
2023/06/25 08:49:30;;;;;;;5.70;3.10;;;;;;;;;;5089693;28;20036;-84
2023/06/25 08:51:58;;;;;;;4.70;3.40;;;;;;;;;;5075012;28;20028;-84
2023/06/25 08:54:24;;;;;;;4.72;3.35;;;;;;;;;;5093131;28;20061;-85
2023/06/25 08:56:50;;;;;;;5.63;3.28;;;;;;;;;;5093707;28;20024;-83
2023/06/25 08:59:16;;;;;;;6.32;3.20;;;;;;;;;;5089005;28;20043;-83
2023/06/25 09:01:42;;;;;;;4.75;3.13;;;;;;;;;;5090781;28;20027;-83
2023/06/25 09:04:08;;;;;;;5.78;3.28;;;;;;;;;;5084509;28;20550;-84
2023/06/25 09:06:40;;;;;;;4.55;3.20;;;;;;;;;;5096554;28;20100;-83
2023/06/25 09:09:07;;;;;;;5.18;3.40;;;;;;;;;;5098059;28;20568;-84
2023/06/25 09:11:33;;;;;;;4.65;3.10;;;;;;;;;;5089561;28;20024;-82
2023/06/25 09:14:00;;;;;;;7.60;3.42;;;;;;;;;;5093976;28;20623;-83
2023/06/25 09:29:35;;;;;;;5.10;3.28;;;;;;;;;;5078883;27;1298584;-82
2023/06/25 09:32:06;;;;;;;4.10;3.20;;;;;;;;;;5088009;28;20570;-85
2023/06/25 09:34:32;;;;;;;5.93;2.88;;;;;;;;;;5105323;28;20032;-84
2023/06/25 09:36:58;;;;;;;6.20;3.60;;;;;;;;;;5088724;28;20032;-85
2023/06/25 09:39:24;;;;;;;5.70;3.30;;;;;;;;;;5106793;28;20031;-84
2023/06/25 09:41:50;;;;;;;5.68;3.53;;;29.00;68.20;;;;;;5109246;28;20038;-84
2023/06/25 09:44:18;;;;;;;4.40;3.40;;;;;;;;;;5123748;28;20107;-86
2023/06/25 09:46:46;;;;;;;5.00;3.28;;;;;;;;;;5117836;28;20124;-83
2023/06/25 09:49:12;;;;;;;5.53;3.25;;;;;;;;;;5092290;28;20327;-84
2023/06/25 09:51:53;;;;;;;4.65;3.10;;;29.20;67.70;;;;;;5096728;28;20020;-83
2023/06/25 09:54:21;;;;;;;4.50;3.10;;;;;;;;;;5091972;28;20030;-82
2023/06/25 09:56:49;;;;;;;5.65;3.13;;;29.40;66.50;;;;;;5108144;28;20388;-83
2023/06/25 09:59:16;;;;;;;5.07;3.60;;;29.40;66.50;;;;;;5090606;28;20399;-84
2023/06/25 10:01:42;;;;;;;5.35;3.00;;;;;;;;;;5087042;28;20023;-83
2023/06/25 10:04:08;;;;;;;4.28;3.25;;;29.70;65.60;;;;;;5088295;28;20039;-84
2023/06/25 10:06:35;;;;;;;4.38;3.22;;;29.60;65.60;;;;;;5090236;28;20032;-85
2023/06/25 10:09:04;;;;;;;5.03;3.38;;;;;;;;;;5110536;28;20115;-82
2023/06/25 10:11:30;;;;;;;5.32;2.88;;;;;;;;;;5090778;28;20035;-85
2023/06/25 10:13:57;;;;;;;4.68;3.33;;;;;;;;;;5105767;28;20031;-84
2023/06/25 10:16:23;;;;;;;3.63;2.83;;;;;;;;;;5085561;28;20624;-87
2023/06/25 10:18:53;;;;;;;6.75;3.47;;;29.40;65.90;;;;;;5091724;28;20046;-84
2023/06/25 10:21:23;;;;;;;4.03;3.10;;;;;;;;;;5091976;28;20811;-84
2023/06/25 10:24:03;;;;;;;4.32;3.28;;;;;;;;;;5109713;28;20029;-84
2023/06/25 10:26:30;;;;;;;4.43;3.17;;;;;;;;;;5085617;28;20122;-84
2023/06/25 10:28:56;;;;;;;4.57;3.35;;;;;;;;;;5084034;28;20024;-85
2023/06/25 10:31:22;;;;;;;4.95;3.28;;;;;;;;;;5092550;28;20020;-83
2023/06/25 10:33:49;;;;;;;4.78;3.40;;;;;;;;;;5093111;28;20153;-84
2023/06/25 10:36:15;;;;;;;4.32;3.17;;;;;;;;;;5079143;28;20348;-82
2023/06/25 10:38:41;;;;;;;4.28;2.85;;;;;;;;;;5090368;28;20029;-84
2023/06/25 10:41:07;;;;;;;4.10;2.88;;;;;;;;;;5068858;28;20035;-84
2023/06/25 10:43:36;;;;;;;9.00;3.03;;;;;;;;;;5093789;28;20028;-83
2023/06/25 10:46:02;;;;;;;4.35;3.17;;;;;;;;;;5071797;28;20407;-84
2023/06/25 10:48:28;;;;;;;5.47;3.15;;;;;;;;;;5095086;28;20024;-83
2023/06/25 10:50:54;;;;;;;3.95;3.08;;;;;;;;;;5094538;28;20016;-83
2023/06/25 10:53:21;;;;;;;3.72;2.83;;;;;;;;;;5064882;28;20039;-85
2023/06/25 10:55:49;;;;;;;4.70;3.25;;;;;;;;;;5071756;28;20042;-83
2023/06/25 10:58:16;;;;;;;4.05;3.00;;;;;;;;;;5090023;28;20491;-83
2023/06/25 11:00:43;;;;;;;4.20;2.92;;;;;;;;;;5074908;28;20081;-86
2023/06/25 11:03:09;;;;;;;3.90;2.92;;;;;;;;;;5087629;28;20115;-85
2023/06/25 11:05:39;;;;;;;4.95;3.42;;;;;;;;;;5088277;28;20033;-85
2023/06/25 11:08:07;;;;;;;5.38;3.60;;;;;;;;;;5076007;28;20024;-83
2023/06/25 11:10:33;;;;;;;4.78;3.28;;;;;;;;;;5073671;28;20494;-83
2023/06/25 11:12:59;;;;;;;4.68;3.13;;;;;;;;;;5081480;28;20021;-86
2023/06/25 11:15:25;;;;;;;3.97;3.10;;;;;;;;;;5085144;28;20054;-86
2023/06/25 11:17:52;;;;;;;5.53;3.17;;;30.70;60.70;;;;;;5103720;28;20048;-86
2023/06/25 11:20:19;;;;;;;5.63;2.90;;;;;;;;;;5111272;28;20016;-86
2023/06/25 11:22:45;;;;;;;4.47;3.15;;;;;;;;;;5090783;28;20008;-85
2023/06/25 11:25:14;;;;;;;5.30;3.20;;;;;;;;;;5110403;28;20035;-85
2023/06/25 11:27:40;;;;;;;4.35;3.20;;;;;;;;;;5098308;28;20537;-81
2023/06/25 11:30:08;;;;;;;4.47;3.17;;;;;;;;;;5086532;28;20019;-82
2023/06/25 11:32:35;;;;;;;4.20;2.70;;;;;;;;;;5093659;28;20028;-83
2023/06/25 11:35:08;;;;;;;4.60;3.08;;;30.80;59.70;;;;;;5094763;28;20036;-81
2023/06/25 11:37:42;;;;;;;4.00;2.90;;;;;;;;;;5074161;28;20132;-82
2023/06/25 11:40:19;;;;;;;5.13;3.55;;;30.80;59.80;;;;;;5085721;28;20040;-83
2023/06/25 11:42:45;;;;;;;5.07;3.53;;;;;;;;;;5090192;28;20043;-82
2023/06/25 11:45:11;;;;;;;4.53;3.35;;;;;;;;;;5089402;28;20463;-80
2023/06/25 11:47:37;;;;;;;5.43;3.30;;;;;;;;;;5071401;28;20078;-83
2023/06/25 11:50:06;;;;;;;4.50;3.08;;;;;;;;;;5098075;28;20028;-82
2023/06/25 11:52:33;;;;;;;4.55;3.30;;;;;;;;;;5088375;28;20024;-83
2023/06/25 11:54:59;;;;;;;8.18;3.60;;;;;;;;;;5093379;28;20036;-81
2023/06/25 11:57:28;;;;;;;4.63;3.17;;;;;;;;;;5069995;28;20119;-83
2023/06/25 11:59:54;;;;;;;6.15;3.70;;;;;;;;;;5086587;28;20034;-83
2023/06/25 12:02:20;;;;;;;3.95;3.20;;;;;;;;;;5069398;28;20713;-82
2023/06/25 12:04:46;;;;;;;5.72;3.50;;;;;;;;;;5093080;28;20028;-83
2023/06/25 12:07:13;;;;;;;5.57;3.38;;;;;;;;;;5075420;28;20453;-83
2023/06/25 12:09:39;;;;;;;4.95;3.60;;;;;;;;;;5094733;28;20024;-83
2023/06/25 12:12:05;;;;;;;4.93;3.30;;;;;;;;;;5082332;28;20031;-83
2023/06/25 12:14:31;;;;;;;4.95;3.70;;;;;;;;;;5106896;28;20056;-82
2023/06/25 12:16:57;;;;;;;4.78;3.53;;;;;;;;;;5088992;28;20083;-85
2023/06/25 12:19:23;;;;;;;4.63;3.28;;;;;;;;;;5110292;28;20040;-84
2023/06/25 12:21:49;;;;;;;12.43;3.80;;;;;;;;;;5083545;28;20060;-86
2023/06/25 12:24:15;;;;;;;5.43;3.55;;;;;;;;;;5087198;28;20509;-83
2023/06/25 12:26:41;;;;;;;5.75;3.72;;;;;;;;;;5100576;28;20044;-85
2023/06/25 12:29:07;;;;;;;3.90;3.25;;;;;;;;;;5079400;28;20040;-82
2023/06/25 12:31:33;;;;;;;4.65;3.33;;;;;;;;;;5085671;28;20020;-84
2023/06/25 12:33:59;;;;;;;5.95;3.58;;;;;;;;;;5079807;28;20059;-84
2023/06/25 12:36:25;;;;;;;4.32;3.35;;;;;;;;;;5094891;28;20035;-83
2023/06/25 12:38:51;;;;;;;4.60;3.40;;;;;;;;;;5084281;28;20031;-83
2023/06/25 12:41:18;;;;;;;4.72;3.25;;;;;;;;;;5094610;28;20032;-83
2023/06/25 12:43:44;;;;;;;5.85;3.13;;;;;;;;;;5088523;28;20028;-81
2023/06/25 12:46:10;;;;;;;4.97;3.72;;;;;;;;;;5074011;28;20015;-81
2023/06/25 12:48:36;;;;;;;6.95;3.55;;;;;;;;;;5069569;28;20516;-83
2023/06/25 12:51:02;;;;;;;4.10;3.50;;;;;;;;;;5066299;28;20039;-82
2023/06/25 12:53:28;;;;;;;4.88;3.38;;;;;;;;;;5090897;28;20475;-81
2023/06/25 12:55:54;;;;;;;4.57;3.45;;;;;;;;;;5084642;28;20081;-82
2023/06/25 12:58:20;;;;;;;4.82;3.85;;;;;;;;;;5069310;28;20043;-81
2023/06/25 13:00:46;;;;;;;4.70;3.72;;;;;;;;;;5086808;28;20038;-81
2023/06/25 13:03:12;;;;;;;4.60;3.35;;;;;;;;;;5065245;28;20115;-82
2023/06/25 13:05:38;;;;;;;5.03;3.22;;;;;;;;;;5064363;28;20073;-81
2023/06/25 13:08:04;;;;;;;4.13;3.03;;;;;;;;;;5090717;28;20032;-82
2023/06/25 13:10:30;;;;;;;5.32;3.45;;;;;;;;;;5056881;28;20074;-83
2023/06/25 13:12:56;;;;;;;5.20;3.33;;;;;;;;;;5066406;28;20487;-81
2023/06/25 13:15:22;;;;;;;4.45;3.50;;;;;;;;;;5088200;28;20028;-82
2023/06/25 13:17:48;;;;;;;4.75;3.78;;;;;;;;;;5074696;28;20088;-81
2023/06/25 13:20:14;;;;;;;10.05;7.63;;;;;;;;;;5063402;28;20024;-82
2023/06/25 13:22:42;;;;;;;4.32;3.35;;;;;;;;;;5083332;28;20494;-83
2023/06/25 13:25:08;;;;;;;4.45;3.17;;;;;;;;;;5060427;28;20027;-85
2023/06/25 13:27:34;;;;;;;4.20;3.13;;;;;;;;;;5073047;28;20024;-84
2023/06/25 13:30:00;;;;;;;4.65;3.30;;;;;;;;;;5067930;28;20077;-84
2023/06/25 13:32:26;;;;;;;4.28;3.17;;;;;;;;;;5083560;28;20038;-84
2023/06/25 13:34:52;;;;;;;4.57;3.22;;;;;;;;;;5064888;28;20024;-82
2023/06/25 13:37:18;;;;;;;4.55;3.13;;;;;;;;;;5063140;28;20578;-81
2023/06/25 13:39:44;;;;;;;4.78;3.45;;;31.60;55.70;;;;;;5081313;28;20032;-81
2023/06/25 13:42:12;;;;;;;5.85;3.63;;;;;;;;;;5063134;28;20527;-80
2023/06/25 13:44:38;;;;;;;4.57;3.22;;;;;;;;;;5087358;28;20027;-81
2023/06/25 13:47:04;;;;;;;4.93;3.35;;;31.40;55.60;;;;;;5087709;28;20032;-81
2023/06/25 13:49:30;;;;;;;5.55;3.55;;;;;;;;;;5085059;28;20040;-82
2023/06/25 13:51:56;;;;;;;5.25;3.50;;;;;;;;;;5069785;28;20028;-82
2023/06/25 13:54:22;;;;;;;4.45;3.10;;;;;;;;;;5088398;28;20472;-81
2023/06/25 13:56:48;;;;;;;4.68;3.60;;;;;;;;;;5068793;28;20111;-84
2023/06/25 13:59:14;;;;;;;9.32;3.45;;;;;;;;;;5085123;28;20547;-82
2023/06/25 14:01:40;;;;;;;4.45;3.60;;;;;;;;;;5078293;28;20099;-82
2023/06/25 14:04:06;;;;;;;4.75;3.45;;;;;;;;;;5069661;28;20024;-85
2023/06/25 14:06:33;;;;;;;6.07;3.92;;;;;;;;;;5063307;28;20028;-82
2023/06/25 14:08:59;;;;;;;5.88;3.67;;;;;;;;;;5064644;28;20028;-82
2023/06/25 14:11:25;;;;;;;6.10;3.80;;;;;;;;;;5066006;28;20035;-81
2023/06/25 14:13:52;;;;;;;4.32;3.25;;;;;;;;;;5082606;28;20028;-81
2023/06/25 14:16:18;;;;;;;4.57;3.58;;;;;;;;;;5086640;28;20076;-81
2023/06/25 14:18:44;;;;;;;5.70;3.55;;;;;;;;;;5093223;28;20036;-82
2023/06/25 14:21:10;;;;;;;4.55;3.58;;;;;;;;;;5070041;28;20389;-83
2023/06/25 14:23:36;;;;;;;4.60;3.45;;;;;;;;;;5073920;28;20265;-81
2023/06/25 14:26:03;;;;;;;4.65;3.38;;;;;;;;;;5089037;28;20063;-82
2023/06/25 14:28:29;;;;;;;5.18;3.72;;;;;;;;;;5088050;28;20056;-82
2023/06/25 14:30:56;;;;;;;4.90;3.90;;;;;;;;;;5096196;28;20221;-83
2023/06/25 14:33:22;;;;;;;5.45;3.65;;;;;;;;;;5094245;28;20083;-84
2023/06/25 14:35:48;;;;;;;5.72;3.47;;;;;;;;;;5113663;28;20024;-84
2023/06/25 14:38:14;;;;;;;5.38;3.50;;;;;;;;;;5092181;28;20107;-83
2023/06/25 14:40:43;;;;;;;4.47;3.22;;;;;;;;;;5074467;28;20028;-82
2023/06/25 14:43:09;;;;;;;10.10;4.15;;;;;;;;;;5061047;28;20032;-79